createdAt,value
2022-08-02T00:02:20.901Z,20.34
2022-08-02T00:04:47.338Z,20.25
2022-08-02T00:07:14.958Z,20.29
2022-08-02T00:09:42.345Z,20.36
2022-08-02T00:12:09.317Z,20.16
2022-08-02T00:14:36.055Z,20.13
2022-08-02T00:17:02.524Z,20.22
2022-08-02T00:19:28.957Z,20.29
2022-08-02T00:21:55.392Z,20.27
2022-08-02T00:24:30.779Z,20.16
2022-08-02T00:26:57.700Z,20.31
2022-08-02T00:29:24.159Z,20.35
2022-08-02T00:31:50.635Z,20.17
2022-08-02T00:34:29.790Z,20.15
2022-08-02T00:36:57.751Z,20.20
2022-08-02T00:39:35.063Z,20.31
2022-08-02T00:42:02.739Z,20.31
2022-08-02T00:44:29.174Z,20.35
2022-08-02T00:46:55.908Z,20.27
2022-08-02T00:49:22.482Z,20.17
2022-08-02T00:51:49.057Z,20.07
2022-08-02T00:54:15.582Z,19.91
2022-08-02T00:56:49.806Z,20.03
2022-08-02T00:59:18.266Z,19.96
2022-08-02T01:01:57.462Z,20.01
2022-08-02T01:04:30.077Z,19.94
2022-08-02T01:07:00.414Z,19.80
2022-08-02T01:09:27.097Z,19.89
2022-08-02T01:11:53.624Z,19.83
2022-08-02T01:14:21.461Z,19.78
2022-08-02T01:16:53.861Z,19.76
2022-08-02T01:19:36.771Z,19.73
2022-08-02T01:22:16.827Z,19.70
2022-08-02T01:25:24.172Z,19.73
2022-08-02T01:28:15.358Z,19.63
2022-08-02T01:30:44.655Z,19.67
2022-08-02T01:33:16.780Z,19.61
2022-08-02T01:35:51.266Z,19.61
2022-08-02T01:38:26.060Z,19.63
2022-08-02T01:40:54.572Z,19.57
2022-08-02T01:43:23.236Z,19.57
2022-08-02T01:45:51.089Z,19.55
2022-08-02T01:48:18.868Z,19.61
2022-08-02T01:50:48.795Z,19.73
2022-08-02T01:53:18.718Z,19.63
2022-08-02T01:55:57.711Z,19.58
2022-08-02T01:58:30.073Z,19.45
2022-08-02T02:00:58.350Z,19.48
2022-08-02T02:03:26.944Z,19.49
2022-08-02T02:05:56.556Z,19.48
2022-08-02T02:08:30.960Z,19.41
2022-08-02T02:12:06.374Z,19.40
2022-08-02T02:13:45.712Z,19.49
2022-08-02T02:16:13.975Z,19.48
2022-08-02T02:18:43.847Z,19.48
2022-08-02T02:21:12.297Z,19.43
2022-08-02T02:23:38.904Z,19.35
2022-08-02T02:26:10.292Z,19.35
2022-08-02T02:28:37.903Z,19.18
2022-08-02T02:31:10.230Z,19.23
2022-08-02T02:33:41.327Z,19.12
2022-08-02T02:36:10.076Z,19.20
2022-08-02T02:38:36.745Z,19.23
2022-08-02T02:41:05.234Z,19.03
2022-08-02T02:43:33.840Z,18.97
2022-08-02T02:46:03.533Z,18.89
2022-08-02T02:48:30.455Z,18.97
2022-08-02T02:50:58.871Z,19.01
2022-08-02T02:53:25.696Z,18.80
2022-08-02T02:56:02.085Z,18.83
2022-08-02T02:58:30.398Z,18.79
2022-08-02T03:01:20.883Z,18.75
2022-08-02T03:04:10.193Z,18.63
2022-08-02T03:06:37.210Z,18.50
2022-08-02T03:09:05.381Z,18.48
2022-08-02T03:11:32.518Z,18.50
2022-08-02T03:14:00.597Z,18.38
2022-08-02T03:16:28.569Z,18.39
2022-08-02T03:18:57.824Z,18.49
2022-08-02T03:21:24.783Z,18.32
2022-08-02T03:23:51.962Z,18.27
2022-08-02T03:26:18.643Z,18.23
2022-08-02T03:28:45.050Z,18.26
2022-08-02T03:31:12.592Z,18.22
2022-08-02T03:33:39.610Z,18.15
2022-08-02T03:36:10.885Z,18.18
2022-08-02T03:38:37.986Z,18.17
2022-08-02T03:41:05.821Z,18.13
2022-08-02T03:43:32.627Z,18.06
2022-08-02T03:46:01.224Z,18.01
2022-08-02T03:48:34.062Z,17.99
2022-08-02T03:51:02.060Z,17.93
2022-08-02T03:53:28.655Z,17.93
2022-08-02T03:55:56.035Z,17.89
2022-08-02T03:58:23.853Z,17.81
2022-08-02T04:00:52.838Z,17.78
2022-08-02T04:03:19.884Z,17.87
2022-08-02T04:06:03.152Z,17.73
2022-08-02T04:08:36.705Z,17.68
2022-08-02T04:11:22.900Z,17.68
2022-08-02T04:13:49.906Z,17.61
2022-08-02T04:16:21.008Z,17.59
2022-08-02T04:18:53.903Z,17.45
2022-08-02T04:21:21.987Z,17.70
2022-08-02T04:23:50.360Z,17.56
2022-08-02T04:26:19.370Z,17.55
2022-08-02T04:28:54.782Z,17.55
2022-08-02T04:31:21.350Z,17.73
2022-08-02T04:33:48.118Z,17.64
2022-08-02T04:36:15.068Z,17.70
2022-08-02T04:38:57.638Z,17.54
2022-08-02T04:41:36.037Z,17.53
2022-08-02T04:44:07.344Z,17.53
2022-08-02T04:46:34.842Z,17.54
2022-08-02T04:49:01.318Z,17.57
2022-08-02T04:51:38.090Z,17.51
2022-08-02T04:54:09.174Z,17.56
2022-08-02T04:56:38.340Z,17.47
2022-08-02T04:59:05.365Z,17.57
2022-08-02T05:01:32.258Z,17.68
2022-08-02T05:03:58.888Z,17.60
2022-08-02T05:06:25.331Z,17.74
2022-08-02T05:08:52.489Z,17.78
2022-08-02T05:11:19.905Z,17.84
2022-08-02T05:13:59.006Z,17.92
2022-08-02T05:16:30.942Z,17.99
2022-08-02T05:19:02.040Z,17.99
2022-08-02T05:21:29.100Z,18.09
2022-08-02T05:23:55.536Z,18.21
2022-08-02T05:26:21.959Z,18.28
2022-08-02T05:28:48.412Z,18.38
2022-08-02T05:31:14.831Z,18.57
2022-08-02T05:33:41.866Z,18.57
2022-08-02T05:36:09.460Z,18.68
2022-08-02T05:38:37.114Z,18.67
2022-08-02T05:41:04.410Z,18.96
2022-08-02T05:43:30.981Z,18.97
2022-08-02T05:45:57.423Z,19.06
2022-08-02T05:48:29.093Z,19.25
2022-08-02T05:51:04.133Z,19.32
2022-08-02T05:54:06.100Z,19.43
2022-08-02T05:57:04.744Z,19.66
2022-08-02T05:59:46.016Z,19.71
2022-08-02T06:02:30.646Z,19.94
2022-08-02T06:05:14.795Z,20.23
2022-08-02T06:07:43.424Z,20.47
2022-08-02T06:10:13.306Z,20.71
2022-08-02T06:12:48.204Z,20.98
2022-08-02T06:15:16.683Z,21.35
2022-08-02T06:17:45.591Z,21.65
2022-08-02T06:20:13.594Z,21.88
2022-08-02T06:22:45.363Z,21.80
2022-08-02T06:25:49.695Z,21.90
2022-08-02T06:28:01.312Z,22.00
2022-08-02T06:30:28.446Z,22.24
2022-08-02T06:32:55.483Z,22.18
2022-08-02T06:35:24.929Z,22.49
2022-08-02T06:37:58.901Z,22.77
2022-08-02T06:40:29.686Z,23.05
2022-08-02T06:43:09.545Z,23.53
2022-08-02T06:45:37.062Z,23.83
2022-08-02T06:48:04.722Z,23.93
2022-08-02T06:50:31.280Z,24.11
2022-08-02T06:52:57.704Z,23.97
2022-08-02T06:55:24.240Z,24.17
2022-08-02T06:57:51.383Z,24.31
2022-08-02T07:00:20.345Z,24.25
2022-08-02T07:02:46.774Z,24.19
2022-08-02T07:05:13.627Z,24.19
2022-08-02T07:07:40.185Z,24.22
2022-08-02T07:10:06.961Z,24.54
2022-08-02T07:12:34.486Z,24.99
2022-08-02T07:15:05.586Z,25.15
2022-08-02T07:17:32.341Z,25.17
2022-08-02T07:19:59.532Z,25.17
2022-08-02T07:22:27.453Z,25.11
2022-08-02T07:24:56.112Z,24.74
2022-08-02T07:27:22.732Z,25.06
2022-08-02T07:29:49.158Z,25.28
2022-08-02T07:32:17.863Z,25.35
2022-08-02T07:34:50.427Z,25.06
2022-08-02T07:37:35.486Z,25.38
2022-08-02T07:40:12.565Z,25.43
2022-08-02T07:42:43.178Z,25.85
2022-08-02T07:45:10.764Z,25.35
2022-08-02T07:47:38.769Z,25.81
2022-08-02T07:50:06.354Z,25.77
2022-08-02T07:52:32.870Z,26.13
2022-08-02T07:54:59.294Z,26.14
2022-08-02T07:57:25.898Z,26.02
2022-08-02T07:59:52.515Z,26.16
2022-08-02T08:02:18.955Z,26.07
2022-08-02T08:04:45.374Z,25.92
2022-08-02T08:07:11.857Z,25.94
2022-08-02T08:09:41.705Z,25.16
2022-08-02T08:12:09.457Z,25.53
2022-08-02T08:14:37.238Z,25.56
2022-08-02T08:17:05.309Z,25.91
2022-08-02T08:19:50.247Z,26.23
2022-08-02T08:22:18.440Z,26.37
2022-08-02T08:24:45.369Z,26.03
2022-08-02T08:27:14.591Z,26.11
2022-08-02T08:29:44.774Z,26.32
2022-08-02T08:32:17.040Z,26.52
2022-08-02T08:34:45.893Z,26.61
2022-08-02T08:37:16.907Z,26.71
2022-08-02T08:39:57.862Z,26.71
2022-08-02T08:42:30.385Z,26.78
2022-08-02T08:44:58.682Z,27.03
2022-08-02T08:47:34.797Z,26.91
2022-08-02T08:50:18.911Z,26.95
2022-08-02T08:53:04.390Z,27.04
2022-08-02T08:55:32.198Z,27.16
2022-08-02T08:58:01.440Z,27.23
2022-08-02T09:00:30.808Z,27.22
2022-08-02T09:02:57.461Z,26.58
2022-08-02T09:05:23.960Z,26.35
2022-08-02T09:07:52.812Z,26.37
2022-08-02T09:10:36.101Z,26.58
2022-08-02T09:13:38.934Z,26.30
2022-08-02T09:16:12.911Z,27.06
2022-08-02T09:18:44.565Z,26.96
2022-08-02T09:21:11.746Z,27.06
2022-08-02T09:23:40.786Z,26.67
2022-08-02T09:26:09.924Z,26.67
2022-08-02T09:28:38.574Z,26.54
2022-08-02T09:31:12.278Z,27.09
2022-08-02T09:33:41.409Z,27.36
2022-08-02T09:36:13.048Z,27.20
2022-08-02T09:38:51.580Z,27.14
2022-08-02T09:41:30.107Z,27.20
2022-08-02T09:44:03.658Z,27.66
2022-08-02T09:46:40.308Z,27.68
2022-08-02T09:49:13.324Z,27.89
2022-08-02T09:51:50.963Z,28.10
2022-08-02T09:54:28.654Z,28.06
2022-08-02T09:57:00.172Z,28.28
2022-08-02T09:59:27.644Z,27.87
2022-08-02T10:02:02.045Z,28.26
2022-08-02T10:04:32.159Z,27.82
2022-08-02T10:07:03.906Z,26.51
2022-08-02T10:09:30.917Z,26.26
2022-08-02T10:11:57.784Z,25.70
2022-08-02T10:14:25.615Z,26.73
2022-08-02T10:16:53.934Z,26.75
2022-08-02T10:20:00.469Z,27.04
2022-08-02T10:22:12.677Z,27.39
2022-08-02T10:24:47.541Z,27.37
2022-08-02T10:27:17.657Z,27.44
2022-08-02T10:29:53.854Z,26.77
2022-08-02T10:32:29.230Z,26.67
2022-08-02T10:34:55.584Z,26.73
2022-08-02T10:37:29.666Z,26.76
2022-08-02T10:39:57.814Z,27.24
2022-08-02T10:42:42.223Z,27.58
2022-08-02T10:45:10.830Z,27.73
2022-08-02T10:47:37.242Z,26.97
2022-08-02T10:50:04.457Z,27.91
2022-08-02T10:52:31.388Z,28.22
2022-08-02T10:55:03.715Z,28.43
2022-08-02T10:57:39.886Z,28.86
2022-08-02T11:00:26.643Z,28.57
2022-08-02T11:02:53.862Z,28.89
2022-08-02T11:05:42.898Z,29.12
2022-08-02T11:08:20.921Z,29.27
2022-08-02T11:10:47.675Z,29.02
2022-08-02T11:13:19.473Z,28.74
2022-08-02T11:15:49.041Z,28.42
2022-08-02T11:18:15.499Z,28.80
2022-08-02T11:20:41.992Z,29.03
2022-08-02T11:23:44.188Z,28.80
2022-08-02T11:26:30.524Z,28.71
2022-08-02T11:28:58.508Z,29.03
2022-08-02T11:31:26.286Z,29.14
2022-08-02T11:33:52.867Z,29.10
2022-08-02T11:36:20.063Z,29.63
2022-08-02T11:38:49.344Z,29.74
2022-08-02T11:41:47.450Z,30.03
2022-08-02T11:44:11.514Z,29.97
2022-08-02T11:46:37.961Z,30.21
2022-08-02T11:49:18.433Z,30.16
2022-08-02T11:52:05.592Z,30.09
2022-08-02T11:54:35.494Z,30.28
2022-08-02T11:57:15.585Z,30.58
2022-08-02T11:59:46.773Z,30.39
2022-08-02T12:02:13.459Z,30.33
2022-08-02T12:04:41.048Z,30.56
2022-08-02T12:07:08.311Z,30.66
2022-08-02T12:09:40.920Z,30.39
2022-08-02T12:12:07.642Z,30.43
2022-08-02T12:14:43.037Z,30.85
2022-08-02T12:17:28.615Z,31.27
2022-08-02T12:19:55.235Z,30.90
2022-08-02T12:22:27.532Z,30.68
2022-08-02T12:24:56.341Z,30.40
2022-08-02T12:27:29.423Z,30.40
2022-08-02T12:30:08.286Z,30.82
2022-08-02T12:32:35.557Z,30.53
2022-08-02T12:35:11.047Z,30.70
2022-08-02T12:37:41.844Z,30.45
2022-08-02T12:40:18.019Z,30.69
2022-08-02T12:42:51.912Z,30.92
2022-08-02T12:45:18.500Z,30.77
2022-08-02T12:47:51.137Z,30.90
2022-08-02T12:50:34.688Z,30.92
2022-08-02T12:53:13.404Z,31.19
2022-08-02T12:55:59.379Z,30.64
2022-08-02T12:58:29.386Z,30.84
2022-08-02T13:00:58.772Z,30.59
2022-08-02T13:04:10.057Z,30.37
2022-08-02T13:06:39.546Z,30.86
2022-08-02T13:09:00.824Z,31.21
2022-08-02T13:11:27.570Z,31.09
2022-08-02T13:13:54.086Z,31.34
2022-08-02T13:16:30.518Z,31.24
2022-08-02T13:18:58.099Z,31.35
2022-08-02T13:21:40.878Z,31.50
2022-08-02T13:24:38.537Z,31.54
2022-08-02T13:27:04.616Z,31.71
2022-08-02T13:29:35.016Z,31.61
2022-08-02T13:32:01.475Z,31.81
2022-08-02T13:34:27.899Z,31.61
2022-08-02T13:36:54.399Z,31.79
2022-08-02T13:39:20.844Z,31.86
2022-08-02T13:41:47.319Z,31.83
2022-08-02T13:44:13.738Z,31.58
2022-08-02T13:46:45.348Z,31.64
2022-08-02T13:49:19.311Z,31.79
2022-08-02T13:51:47.571Z,31.83
2022-08-02T13:54:14.842Z,31.94
2022-08-02T13:56:41.449Z,32.17
2022-08-02T13:59:55.106Z,32.55
2022-08-02T14:01:56.444Z,32.53
2022-08-02T14:04:23.402Z,32.38
2022-08-02T14:06:50.376Z,32.39
2022-08-02T14:09:17.324Z,32.06
2022-08-02T14:11:44.743Z,32.18
2022-08-02T14:14:15.661Z,32.18
2022-08-02T14:16:43.477Z,31.79
2022-08-02T14:19:16.628Z,32.00
2022-08-02T14:21:47.944Z,31.66
2022-08-02T14:24:15.697Z,31.39
2022-08-02T14:26:42.297Z,31.77
2022-08-02T14:29:09.127Z,31.88
2022-08-02T14:31:38.984Z,31.63
2022-08-02T14:34:08.187Z,31.66
2022-08-02T14:36:34.632Z,31.17
2022-08-02T14:39:01.899Z,30.69
2022-08-02T14:41:28.353Z,30.80
2022-08-02T14:44:08.030Z,30.98
2022-08-02T14:46:37.703Z,31.00
2022-08-02T14:49:05.223Z,31.15
2022-08-02T14:51:32.245Z,31.34
2022-08-02T14:54:03.289Z,31.37
2022-08-02T14:56:30.150Z,31.39
2022-08-02T14:58:56.620Z,31.55
2022-08-02T15:01:26.210Z,31.44
2022-08-02T15:03:53.255Z,31.56
2022-08-02T15:06:19.735Z,31.47
2022-08-02T15:08:46.180Z,31.32
2022-08-02T15:11:12.645Z,31.21
2022-08-02T15:13:42.298Z,30.79
2022-08-02T15:16:09.612Z,30.95
2022-08-02T15:18:36.120Z,31.15
2022-08-02T15:21:09.715Z,31.26
2022-08-02T15:23:48.956Z,30.94
2022-08-02T15:26:15.442Z,31.01
2022-08-02T15:28:41.870Z,30.88
2022-08-02T15:31:08.345Z,30.92
2022-08-02T15:33:34.820Z,30.99
2022-08-02T15:36:01.488Z,30.85
2022-08-02T15:38:27.978Z,30.78
2022-08-02T15:40:54.411Z,30.63
2022-08-02T15:43:21.526Z,30.65
2022-08-02T15:45:48.025Z,30.35
2022-08-02T15:48:14.476Z,30.48
2022-08-02T15:50:40.902Z,30.63
2022-08-02T15:53:07.647Z,30.56
2022-08-02T15:55:39.917Z,30.55
2022-08-02T15:58:22.377Z,30.51
2022-08-02T16:00:49.173Z,30.06
2022-08-02T16:03:16.204Z,30.19
2022-08-02T16:05:42.686Z,30.07
2022-08-02T16:08:09.105Z,30.29
2022-08-02T16:10:35.857Z,30.25
2022-08-02T16:13:21.684Z,30.28
2022-08-02T16:15:48.121Z,30.24
2022-08-02T16:18:14.746Z,30.19
2022-08-02T16:20:41.331Z,29.96
2022-08-02T16:23:07.760Z,29.94
2022-08-02T16:25:37.613Z,30.08
2022-08-02T16:28:08.140Z,30.10
2022-08-02T16:30:35.225Z,29.69
2022-08-02T16:33:01.678Z,29.79
2022-08-02T16:35:28.319Z,29.79
2022-08-02T16:37:54.898Z,29.76
2022-08-02T16:40:22.128Z,29.65
2022-08-02T16:42:51.006Z,29.66
2022-08-02T16:45:20.039Z,29.61
2022-08-02T16:47:56.007Z,29.16
2022-08-02T16:50:23.363Z,29.40
2022-08-02T16:52:58.802Z,29.08
2022-08-02T16:55:25.895Z,29.20
2022-08-02T17:00:46.537Z,29.00
2022-08-02T17:03:14.266Z,28.90
2022-08-02T17:05:56.330Z,28.91
2022-08-02T17:08:23.880Z,28.90
2022-08-02T17:10:58.677Z,28.82
2022-08-02T17:13:30.390Z,28.84
2022-08-02T17:16:15.670Z,28.81
2022-08-02T17:18:43.251Z,28.79
2022-08-02T17:21:15.701Z,28.78
2022-08-02T17:24:02.807Z,28.79
2022-08-02T17:26:31.305Z,28.78
2022-08-02T17:29:15.784Z,28.80
2022-08-02T17:32:05.794Z,28.73
2022-08-02T17:34:35.630Z,28.68
2022-08-02T17:37:02.202Z,28.64
2022-08-02T17:39:34.065Z,28.37
2022-08-02T17:42:01.230Z,28.46
2022-08-02T17:44:37.428Z,28.45
2022-08-02T17:47:07.107Z,28.37
2022-08-02T17:49:39.471Z,28.24
2022-08-02T17:52:48.262Z,28.18
2022-08-02T17:54:57.286Z,28.07
2022-08-02T17:57:23.923Z,28.01
2022-08-02T18:00:10.994Z,27.93
2022-08-02T18:02:39.055Z,27.76
2022-08-02T18:05:05.845Z,27.56
2022-08-02T18:07:50.957Z,27.34
2022-08-02T18:10:20.744Z,27.23
2022-08-02T18:12:49.703Z,27.23
2022-08-02T18:15:16.329Z,27.26
2022-08-02T18:17:46.581Z,27.21
2022-08-02T18:20:13.086Z,27.11
2022-08-02T18:22:43.112Z,27.01
2022-08-02T18:25:11.846Z,26.87
2022-08-02T18:27:58.283Z,26.73
2022-08-02T18:30:28.469Z,26.65
2022-08-02T18:33:59.366Z,26.56
2022-08-02T18:35:42.622Z,26.41
2022-08-02T18:38:11.575Z,26.37
2022-08-02T18:40:38.407Z,26.40
2022-08-02T18:43:06.987Z,26.31
2022-08-02T18:45:43.308Z,26.02
2022-08-02T18:48:21.837Z,25.92
2022-08-02T18:50:48.670Z,25.81
2022-08-02T18:53:16.881Z,25.76
2022-08-02T18:56:04.287Z,25.73
2022-08-02T18:58:31.356Z,25.60
2022-08-02T19:00:59.624Z,25.55
2022-08-02T19:03:31.725Z,25.52
2022-08-02T19:06:03.940Z,25.37
2022-08-02T19:08:34.806Z,25.32
2022-08-02T19:11:02.502Z,25.20
2022-08-02T19:13:29.478Z,25.08
2022-08-02T19:15:56.042Z,25.04
2022-08-02T19:18:27.111Z,24.96
2022-08-02T19:21:01.251Z,24.87
2022-08-02T19:23:31.896Z,24.74
2022-08-02T19:25:58.597Z,24.68
2022-08-02T19:28:26.776Z,24.63
2022-08-02T19:30:55.050Z,24.58
2022-08-02T19:33:54.519Z,24.52
2022-08-02T19:36:08.192Z,24.44
2022-08-02T19:38:35.010Z,24.34
2022-08-02T19:41:01.631Z,24.23
2022-08-02T19:44:27.203Z,24.14
2022-08-02T19:46:15.821Z,23.99
2022-08-02T19:48:42.783Z,23.92
2022-08-02T19:51:12.845Z,23.85
2022-08-02T19:53:48.024Z,23.77
2022-08-02T19:56:21.217Z,23.72
2022-08-02T19:58:52.090Z,23.66
2022-08-02T20:01:22.196Z,23.60
2022-08-02T20:03:53.637Z,23.54
2022-08-02T20:06:20.323Z,23.49
2022-08-02T20:08:59.382Z,23.44
2022-08-02T20:11:34.804Z,23.41
2022-08-02T20:14:03.634Z,23.32
2022-08-02T20:16:33.003Z,23.28
2022-08-02T20:19:00.396Z,23.17
2022-08-02T20:21:35.989Z,23.11
2022-08-02T20:24:05.711Z,23.03
2022-08-02T20:26:32.178Z,23.04
2022-08-02T20:29:02.805Z,22.98
2022-08-02T20:31:30.004Z,22.72
2022-08-02T20:33:57.005Z,22.77
2022-08-02T20:36:24.623Z,22.74
2022-08-02T20:38:51.082Z,22.69
2022-08-02T20:41:20.231Z,22.64
2022-08-02T20:43:48.244Z,22.58
2022-08-02T20:46:15.262Z,22.55
2022-08-02T20:48:41.669Z,22.51
2022-08-02T20:51:09.602Z,22.45
2022-08-02T20:53:54.757Z,22.34
2022-08-02T20:56:21.644Z,22.31
2022-08-02T20:58:48.097Z,22.29
2022-08-02T21:01:18.941Z,22.10
2022-08-02T21:03:56.590Z,22.04
2022-08-02T21:06:29.791Z,22.07
2022-08-02T21:08:57.071Z,22.03
2022-08-02T21:11:33.311Z,21.98
2022-08-02T21:14:07.701Z,21.96
2022-08-02T21:16:35.639Z,21.89
2022-08-02T21:19:02.484Z,21.82
2022-08-02T21:21:29.745Z,21.82
2022-08-02T21:23:56.770Z,21.77
2022-08-02T21:26:28.024Z,21.68
2022-08-02T21:28:55.247Z,21.69
2022-08-02T21:31:21.903Z,21.65
2022-08-02T21:33:58.044Z,21.49
2022-08-02T21:36:33.537Z,21.37
2022-08-02T21:39:04.577Z,21.37
2022-08-02T21:41:38.957Z,21.34
2022-08-02T21:44:07.366Z,21.31
2022-08-02T21:46:33.819Z,21.32
2022-08-02T21:49:01.935Z,21.27
2022-08-02T21:51:29.102Z,21.21
2022-08-02T21:54:16.927Z,21.21
2022-08-02T21:56:45.941Z,21.19
2022-08-02T21:59:15.836Z,21.12
2022-08-02T22:01:52.747Z,21.08
2022-08-02T22:04:19.727Z,21.07
2022-08-02T22:06:47.008Z,21.03
2022-08-02T22:09:17.695Z,21.03
2022-08-02T22:11:44.374Z,20.93
2022-08-02T22:14:12.794Z,20.91
2022-08-02T22:16:39.472Z,20.92
2022-08-02T22:19:06.724Z,20.92
2022-08-02T22:21:46.694Z,20.92
2022-08-02T22:24:30.308Z,20.81
2022-08-02T22:26:57.551Z,20.79
2022-08-02T22:29:24.081Z,20.77
2022-08-02T22:31:51.751Z,20.72
2022-08-02T22:34:37.120Z,20.68
2022-08-02T22:37:05.970Z,20.61
2022-08-02T22:40:06.097Z,20.59
2022-08-02T22:42:36.587Z,20.55
2022-08-02T22:45:07.618Z,20.54
2022-08-02T22:47:34.271Z,20.51
2022-08-02T22:50:05.627Z,20.44
2022-08-02T22:52:38.437Z,20.46
2022-08-02T22:55:05.273Z,20.38
2022-08-02T22:57:32.977Z,20.36
2022-08-02T22:58:48.941Z,29.11
2022-08-02T23:00:19.851Z,20.40
2022-08-02T23:02:46.284Z,20.38
2022-08-02T23:05:12.697Z,20.38
2022-08-02T23:07:39.407Z,20.37
2022-08-02T23:10:07.801Z,20.36
2022-08-02T23:12:34.483Z,20.34
2022-08-02T23:15:01.119Z,20.31
2022-08-02T23:17:46.196Z,20.23
2022-08-02T23:20:13.704Z,20.21
2022-08-02T23:22:40.122Z,20.19
2022-08-02T23:25:07.735Z,20.21
2022-08-02T23:27:34.469Z,20.20
2022-08-02T23:30:01.688Z,20.20
2022-08-02T23:32:28.753Z,20.14
2022-08-02T23:34:56.355Z,20.12
2022-08-02T23:37:23.601Z,20.10
2022-08-02T23:39:50.365Z,20.07
2022-08-02T23:42:16.916Z,20.07
2022-08-02T23:44:43.577Z,20.05
2022-08-02T23:47:10.996Z,20.03
2022-08-02T23:49:37.622Z,20.01
2022-08-02T23:52:04.310Z,20.01
2022-08-02T23:54:30.759Z,19.97
2022-08-02T23:56:57.188Z,19.99
2022-08-02T23:59:23.652Z,19.97
